Time,TemperatureF,DewpointF,PressureIn,WindDirection,WindDirectionDegrees,WindSpeedMPH,WindSpeedGustMPH,Humidity,HourlyPrecipIn,Conditions,Clouds,dailyrainin,SolarRadiationWatts/m^2,SoftwareType,DateUTC
2013-09-13 00:01:00,47.0,42.0,-100.00,NNW,347,1.0,5.0,83,0.00,,,0.01,0.000000,,2013-09-13 05:01:00,
2013-09-13 00:22:00,47.0,42.0,-100.00,NNW,347,1.0,5.0,83,0.00,,,0.01,0.000000,,2013-09-13 05:22:00,
2013-09-13 00:34:00,47.0,42.0,-100.00,NNW,347,1.0,5.0,83,0.00,,,0.01,0.000000,,2013-09-13 05:34:00,
2013-09-13 00:43:00,47.0,42.0,-100.00,NNW,347,1.0,5.0,83,0.00,,,0.01,0.000000,,2013-09-13 05:43:00,
2013-09-13 00:53:00,47.0,42.0,-100.00,NNW,347,1.0,5.0,83,0.00,,,0.01,0.000000,,2013-09-13 05:53:00,
2013-09-13 01:01:00,41.0,40.0,-100.00,NW,320,0.0,2.0,96,0.00,,,0.01,0.000000,,2013-09-13 06:01:00,
2013-09-13 01:22:00,41.0,40.0,-100.00,NW,320,0.0,2.0,96,0.00,,,0.01,0.000000,,2013-09-13 06:22:00,
2013-09-13 01:32:00,41.0,40.0,-100.00,NW,320,0.0,2.0,96,0.00,,,0.01,0.000000,,2013-09-13 06:32:00,
2013-09-13 01:42:00,41.0,40.0,-100.00,NW,320,0.0,2.0,96,0.00,,,0.01,0.000000,,2013-09-13 06:42:00,
2013-09-13 01:52:00,41.0,40.0,-100.00,NW,320,0.0,2.0,96,0.00,,,0.01,0.000000,,2013-09-13 06:52:00,
2013-09-13 02:01:00,39.0,38.0,-100.00,SSW,205,0.0,2.0,98,0.00,,,0.00,0.000000,,2013-09-13 07:01:00,
2013-09-13 02:22:00,39.0,38.0,-100.00,SSW,205,0.0,2.0,98,0.00,,,0.00,0.000000,,2013-09-13 07:22:00,
2013-09-13 02:34:00,39.0,38.0,-100.00,SSW,205,0.0,2.0,98,0.00,,,0.00,0.000000,,2013-09-13 07:34:00,
2013-09-13 02:43:00,39.0,38.0,-100.00,SSW,205,0.0,2.0,98,0.00,,,0.00,0.000000,,2013-09-13 07:43:00,
2013-09-13 02:52:00,39.0,38.0,-100.00,SSW,205,0.0,2.0,98,0.00,,,0.00,0.000000,,2013-09-13 07:52:00,
2013-09-13 03:01:00,39.0,38.0,-100.00,West,272,1.0,3.0,98,0.00,,,0.00,0.000000,,2013-09-13 08:01:00,
2013-09-13 03:42:00,39.0,38.0,-100.00,West,272,1.0,3.0,98,0.00,,,0.00,0.000000,,2013-09-13 08:42:00,
2013-09-13 03:52:00,39.0,38.0,-100.00,West,272,1.0,3.0,98,0.00,,,0.00,0.000000,,2013-09-13 08:52:00,
2013-09-13 04:01:00,36.0,35.0,-100.00,NW,304,0.0,2.0,98,0.00,,,0.00,0.000000,,2013-09-13 09:01:00,
2013-09-13 04:21:00,36.0,35.0,-100.00,NW,304,0.0,2.0,98,0.00,,,0.00,0.000000,,2013-09-13 09:21:00,
2013-09-13 04:33:00,36.0,35.0,-100.00,NW,304,0.0,2.0,98,0.00,,,0.00,0.000000,,2013-09-13 09:33:00,
2013-09-13 04:43:00,36.0,35.0,-100.00,NW,304,0.0,2.0,98,0.00,,,0.00,0.000000,,2013-09-13 09:43:00,
2013-09-13 04:54:00,36.0,35.0,-100.00,NW,304,0.0,2.0,98,0.00,,,0.00,0.000000,,2013-09-13 09:54:00,
2013-09-13 05:01:00,35.0,34.0,-100.00,West,265,0.0,2.0,98,0.00,,,0.00,0.000000,,2013-09-13 10:01:00,
2013-09-13 05:42:00,35.0,34.0,-100.00,West,265,0.0,2.0,98,0.00,,,0.00,0.000000,,2013-09-13 10:42:00,
2013-09-13 05:53:00,35.0,34.0,-100.00,West,265,0.0,2.0,98,0.00,,,0.00,0.000000,,2013-09-13 10:53:00,
2013-09-13 06:01:00,33.0,32.0,-100.00,West,277,0.0,2.0,98,0.00,,,0.00,0.000000,,2013-09-13 11:01:00,
2013-09-13 06:42:00,33.0,32.0,-100.00,West,277,0.0,2.0,98,0.00,,,0.00,0.000000,,2013-09-13 11:42:00,
2013-09-13 06:52:00,33.0,32.0,-100.00,West,277,0.0,2.0,98,0.00,,,0.00,0.000000,,2013-09-13 11:52:00,
2013-09-13 07:01:00,32.0,32.0,-100.00,WNW,295,0.0,2.0,98,0.00,,,0.00,5.000000,,2013-09-13 12:01:00,
2013-09-13 07:42:00,32.0,32.0,-100.00,WNW,295,0.0,2.0,98,0.00,,,0.00,5.000000,,2013-09-13 12:42:00,
2013-09-13 07:52:00,32.0,32.0,-100.00,WNW,295,0.0,2.0,98,0.00,,,0.00,5.000000,,2013-09-13 12:52:00,
2013-09-13 08:01:00,42.0,41.0,-100.00,WNW,302,1.0,2.0,95,0.00,,,0.00,144.000000,,2013-09-13 13:01:00,
2013-09-13 08:42:00,42.0,41.0,-100.00,WNW,302,1.0,2.0,95,0.00,,,0.00,144.000000,,2013-09-13 13:42:00,
2013-09-13 08:52:00,42.0,41.0,-100.00,WNW,302,1.0,2.0,95,0.00,,,0.00,144.000000,,2013-09-13 13:52:00,
2013-09-13 09:01:00,53.0,44.0,-100.00,SE,134,0.0,2.0,72,0.00,,,0.00,324.000000,,2013-09-13 14:01:00,
2013-09-13 09:42:00,53.0,44.0,-100.00,SE,134,0.0,2.0,72,0.00,,,0.00,324.000000,,2013-09-13 14:42:00,
2013-09-13 09:52:00,53.0,44.0,-100.00,SE,134,0.0,2.0,72,0.00,,,0.00,324.000000,,2013-09-13 14:52:00,
2013-09-13 10:01:00,55.0,42.0,-100.00,NE,47,5.0,8.0,62,0.00,,,0.00,520.000000,,2013-09-13 15:01:00,
2013-09-13 10:43:00,55.0,42.0,-100.00,NE,47,5.0,8.0,62,0.00,,,0.00,520.000000,,2013-09-13 15:43:00,
2013-09-13 10:53:00,55.0,42.0,-100.00,NE,47,5.0,8.0,62,0.00,,,0.00,520.000000,,2013-09-13 15:53:00,
2013-09-13 11:01:00,58.0,43.0,-100.00,ENE,58,4.0,10.0,58,0.00,,,0.00,556.000000,,2013-09-13 16:01:00,
2013-09-13 11:43:00,58.0,43.0,-100.00,ENE,58,4.0,10.0,58,0.00,,,0.00,556.000000,,2013-09-13 16:43:00,
2013-09-13 11:54:00,58.0,43.0,-100.00,ENE,58,4.0,10.0,58,0.00,,,0.00,556.000000,,2013-09-13 16:54:00,
2013-09-13 12:01:00,58.0,43.0,-100.00,NNW,343,5.0,11.0,57,0.00,,,0.00,544.000000,,2013-09-13 17:01:00,
2013-09-13 12:44:00,58.0,43.0,-100.00,NNW,343,5.0,11.0,57,0.00,,,0.00,544.000000,,2013-09-13 17:44:00,
2013-09-13 12:53:00,58.0,43.0,-100.00,NNW,343,5.0,11.0,57,0.00,,,0.00,544.000000,,2013-09-13 17:53:00,
2013-09-13 13:01:00,57.0,44.0,-100.00,NW,325,3.0,9.0,61,0.00,,,0.00,642.000000,,2013-09-13 18:01:00,
2013-09-13 13:22:00,57.0,44.0,-100.00,NW,325,3.0,9.0,61,0.00,,,0.00,642.000000,,2013-09-13 18:22:00,
2013-09-13 13:32:00,57.0,44.0,-100.00,NW,325,3.0,9.0,61,0.00,,,0.00,642.000000,,2013-09-13 18:32:00,
2013-09-13 13:42:00,57.0,44.0,-100.00,NW,325,3.0,9.0,61,0.00,,,0.00,642.000000,,2013-09-13 18:42:00,
2013-09-13 13:52:00,57.0,44.0,-100.00,NW,325,3.0,9.0,61,0.00,,,0.00,642.000000,,2013-09-13 18:52:00,
2013-09-13 14:01:00,60.0,43.0,-100.00,North,349,4.0,8.0,53,0.00,,,0.00,672.000000,,2013-09-13 19:01:00,
2013-09-13 14:43:00,60.0,43.0,-100.00,North,349,4.0,8.0,53,0.00,,,0.00,672.000000,,2013-09-13 19:43:00,
2013-09-13 14:52:00,60.0,43.0,-100.00,North,349,4.0,8.0,53,0.00,,,0.00,672.000000,,2013-09-13 19:52:00,
2013-09-13 15:01:00,63.0,42.0,-100.00,ESE,122,4.0,8.0,47,0.00,,,0.00,765.000000,,2013-09-13 20:01:00,
2013-09-13 15:43:00,63.0,42.0,-100.00,ESE,122,4.0,8.0,47,0.00,,,0.00,765.000000,,2013-09-13 20:43:00,
2013-09-13 15:52:00,63.0,42.0,-100.00,ESE,122,4.0,8.0,47,0.00,,,0.00,765.000000,,2013-09-13 20:52:00,
2013-09-13 16:01:00,60.0,44.0,-100.00,NNW,343,2.0,7.0,55,0.00,,,0.00,433.000000,,2013-09-13 21:01:00,
2013-09-13 16:44:00,60.0,44.0,-100.00,NNW,343,2.0,7.0,55,0.00,,,0.00,433.000000,,2013-09-13 21:44:00,
2013-09-13 16:54:00,60.0,44.0,-100.00,NNW,343,2.0,7.0,55,0.00,,,0.00,433.000000,,2013-09-13 21:54:00,
2013-09-13 17:01:00,63.0,45.0,-100.00,NNE,16,4.0,9.0,51,0.00,,,0.00,488.000000,,2013-09-13 22:01:00,
2013-09-13 17:24:00,63.0,45.0,-100.00,NNE,16,4.0,9.0,51,0.00,,,0.00,488.000000,,2013-09-13 22:24:00,
2013-09-13 17:33:00,63.0,45.0,-100.00,NNE,16,4.0,9.0,51,0.00,,,0.00,488.000000,,2013-09-13 22:33:00,
2013-09-13 17:43:00,63.0,45.0,-100.00,NNE,16,4.0,9.0,51,0.00,,,0.00,488.000000,,2013-09-13 22:43:00,
2013-09-13 17:53:00,63.0,45.0,-100.00,NNE,16,4.0,9.0,51,0.00,,,0.00,488.000000,,2013-09-13 22:53:00,
2013-09-13 18:01:00,57.0,47.0,-100.00,NNW,343,2.0,7.0,68,0.00,,,0.00,238.000000,,2013-09-13 23:01:00,
2013-09-13 18:43:00,57.0,47.0,-100.00,NNW,343,2.0,7.0,68,0.00,,,0.00,238.000000,,2013-09-13 23:43:00,
2013-09-13 18:53:00,57.0,47.0,-100.00,NNW,343,2.0,7.0,68,0.00,,,0.00,238.000000,,2013-09-13 23:53:00,
2013-09-13 19:01:00,52.0,47.0,-100.00,SSE,168,0.0,7.0,84,0.00,,,0.00,73.000000,,2013-09-14 00:01:00,
2013-09-13 19:22:00,52.0,47.0,-100.00,SSE,168,0.0,7.0,84,0.00,,,0.00,73.000000,,2013-09-14 00:22:00,
2013-09-13 19:32:00,52.0,47.0,-100.00,SSE,168,0.0,7.0,84,0.00,,,0.00,73.000000,,2013-09-14 00:32:00,
2013-09-13 19:42:00,52.0,47.0,-100.00,SSE,168,0.0,7.0,84,0.00,,,0.00,73.000000,,2013-09-14 00:42:00,
2013-09-13 19:52:00,52.0,47.0,-100.00,SSE,168,0.0,7.0,84,0.00,,,0.00,73.000000,,2013-09-14 00:52:00,
2013-09-13 20:01:00,46.0,45.0,-100.00,WSW,258,0.0,2.0,96,0.00,,,0.00,3.000000,,2013-09-14 01:01:00,
2013-09-13 20:42:00,46.0,45.0,-100.00,WSW,258,0.0,2.0,96,0.00,,,0.00,3.000000,,2013-09-14 01:42:00,
2013-09-13 20:52:00,46.0,45.0,-100.00,WSW,258,0.0,2.0,96,0.00,,,0.00,3.000000,,2013-09-14 01:52:00,
2013-09-13 21:01:00,42.0,41.0,-100.00,WNW,285,0.0,2.0,97,0.00,,,0.00,0.000000,,2013-09-14 02:01:00,
2013-09-13 21:22:00,42.0,41.0,-100.00,WNW,285,0.0,2.0,97,0.00,,,0.00,0.000000,,2013-09-14 02:22:00,
2013-09-13 21:33:00,42.0,41.0,-100.00,WNW,285,0.0,2.0,97,0.00,,,0.00,0.000000,,2013-09-14 02:33:00,
2013-09-13 21:42:00,42.0,41.0,-100.00,WNW,285,0.0,2.0,97,0.00,,,0.00,0.000000,,2013-09-14 02:42:00,
2013-09-13 21:52:00,42.0,41.0,-100.00,WNW,285,0.0,2.0,97,0.00,,,0.00,0.000000,,2013-09-14 02:52:00,
2013-09-13 22:01:00,40.0,39.0,-100.00,WSW,250,0.0,0.0,97,0.00,,,0.00,0.000000,,2013-09-14 03:01:00,
2013-09-13 22:22:00,40.0,39.0,-100.00,WSW,250,0.0,0.0,97,0.00,,,0.00,0.000000,,2013-09-14 03:22:00,
2013-09-13 22:34:00,40.0,39.0,-100.00,WSW,250,0.0,0.0,97,0.00,,,0.00,0.000000,,2013-09-14 03:34:00,
2013-09-13 22:45:00,40.0,39.0,-100.00,WSW,250,0.0,0.0,97,0.00,,,0.00,0.000000,,2013-09-14 03:45:00,
2013-09-13 22:55:00,40.0,39.0,-100.00,WSW,250,0.0,0.0,97,0.00,,,0.00,0.000000,,2013-09-14 03:55:00,
2013-09-13 23:01:00,38.0,37.0,-100.00,West,266,0.0,0.0,98,0.00,,,0.00,0.000000,,2013-09-14 04:01:00,
2013-09-13 23:43:00,38.0,37.0,-100.00,West,266,0.0,0.0,98,0.00,,,0.00,0.000000,,2013-09-14 04:43:00,
2013-09-13 23:54:00,38.0,37.0,-100.00,West,266,0.0,0.0,98,0.00,,,0.00,0.000000,,2013-09-14 04:54:00,